Time;durP1;ratioP1;P1;durP2;ratioP2;P2;SDS_P1;SDS_P2;PMS_P1;PMS_P2;Temp;Humidity;BMP_temperature;BMP_pressure;BME280_temperature;BME280_humidity;BME280_pressure;Samples;Min_cycle;Max_cycle;Signal;HPM_P1;HPM_P2
2023/04/18 00:02:25;;;;;;;3.80;1.27;;;20.30;99.90;;;;;;4955393;28;20232;-77
2023/04/18 00:04:56;;;;;;;4.28;1.00;;;20.30;99.90;;;;;;4955686;29;20229;-78
2023/04/18 00:07:27;;;;;;;2.95;1.20;;;20.30;99.90;;;;;;4955581;29;20208;-77
2023/04/18 00:09:58;;;;;;;3.05;1.10;;;20.40;99.90;;;;;;4956082;29;20200;-77
2023/04/18 00:12:33;;;;;;;5.65;1.42;;;20.50;99.90;;;;;;4955629;29;20193;-77
2023/04/18 00:15:06;;;;;;;4.82;1.20;;;20.70;99.90;;;;;;4955580;29;20216;-77
2023/04/18 00:17:38;;;;;;;1.20;0.65;;;20.90;99.90;;;;;;4955586;29;20707;-78
2023/04/18 00:20:11;;;;;;;4.95;1.00;;;21.00;99.90;;;;;;4955469;29;20568;-78
2023/04/18 00:22:45;;;;;;;3.92;1.10;;;21.10;99.90;;;;;;4955428;29;20284;-77
2023/04/18 00:25:17;;;;;;;3.13;1.00;;;21.30;99.90;;;;;;4955448;29;20197;-77
2023/04/18 00:27:50;;;;;;;3.03;0.98;;;21.30;99.90;;;;;;4955112;29;20208;-78
2023/04/18 00:30:21;;;;;;;5.50;1.17;;;21.40;99.90;;;;;;4951848;29;20696;-78
2023/04/18 00:32:52;;;;;;;4.60;0.82;;;21.30;99.90;;;;;;4955281;29;20204;-78
2023/04/18 00:35:23;;;;;;;6.40;1.10;;;21.30;99.90;;;;;;4955294;29;20676;-78
2023/04/18 00:37:55;;;;;;;2.75;0.90;;;21.30;99.90;;;;;;4955058;29;20684;-77
2023/04/18 00:40:26;;;;;;;3.10;1.23;;;21.30;99.90;;;;;;4955250;29;20598;-77
2023/04/18 00:42:59;;;;;;;3.47;0.93;;;21.40;99.90;;;;;;4954974;29;20200;-77
2023/04/18 00:45:30;;;;;;;2.63;0.75;;;21.70;99.90;;;;;;4955529;29;20200;-77
2023/04/18 00:48:01;;;;;;;3.35;0.85;;;21.80;99.90;;;;;;4955369;29;20208;-77
2023/04/18 00:50:32;;;;;;;4.15;1.00;;;21.80;99.90;;;;;;4952521;29;20193;-77
2023/04/18 00:53:04;;;;;;;4.10;1.00;;;21.80;99.90;;;;;;4954881;29;20205;-77
2023/04/18 00:55:35;;;;;;;3.63;0.95;;;21.90;99.90;;;;;;4954838;29;20200;-77
2023/04/18 00:58:08;;;;;;;5.07;0.93;;;21.90;99.90;;;;;;4954883;29;20224;-77
2023/04/18 01:00:40;;;;;;;5.25;1.20;;;21.90;99.90;;;;;;4954825;29;20200;-77
2023/04/18 01:03:13;;;;;;;4.97;0.85;;;21.80;99.90;;;;;;4955027;29;20189;-77
2023/04/18 01:05:44;;;;;;;1.02;0.80;;;21.80;99.90;;;;;;4954902;29;20661;-78
2023/04/18 01:08:15;;;;;;;2.90;1.00;;;21.70;99.90;;;;;;4954913;29;20197;-77
2023/04/18 01:10:46;;;;;;;3.47;0.70;;;21.60;99.90;;;;;;4955076;29;20193;-78
2023/04/18 01:13:21;;;;;;;6.00;1.05;;;21.60;99.90;;;;;;4955683;28;20634;-77
2023/04/18 01:15:53;;;;;;;5.13;1.55;;;21.70;99.90;;;;;;4958663;29;20192;-79
2023/04/18 01:18:25;;;;;;;6.93;0.70;;;21.70;99.90;;;;;;4958668;29;20311;-77
2023/04/18 01:20:59;;;;;;;4.25;0.57;;;21.80;99.90;;;;;;4958542;29;20285;-77
2023/04/18 01:23:30;;;;;;;4.10;0.70;;;21.70;99.90;;;;;;4958634;29;20219;-78
2023/04/18 01:26:03;;;;;;;2.83;0.60;;;21.70;99.90;;;;;;4958301;29;20192;-78
2023/04/18 01:28:37;;;;;;;2.53;0.80;;;21.60;99.90;;;;;;4955621;29;20657;-78
2023/04/18 01:31:08;;;;;;;3.33;0.60;;;21.70;99.90;;;;;;4948815;29;20189;-78
2023/04/18 01:33:39;;;;;;;4.03;0.70;;;21.70;99.90;;;;;;4958492;29;20605;-77
2023/04/18 01:36:11;;;;;;;2.90;0.85;;;21.60;99.90;;;;;;4941237;29;20657;-78
2023/04/18 01:38:42;;;;;;;3.65;0.80;;;21.70;99.90;;;;;;4938878;29;20225;-78
2023/04/18 01:41:15;;;;;;;3.42;0.70;;;21.70;99.90;;;;;;4939077;29;20194;-78
2023/04/18 01:43:46;;;;;;;3.55;0.60;;;21.80;99.90;;;;;;4942125;29;20205;-77
2023/04/18 01:46:17;;;;;;;2.30;0.68;;;21.80;99.90;;;;;;4950708;29;20204;-78
2023/04/18 01:48:48;;;;;;;4.45;0.80;;;21.80;99.90;;;;;;4938860;29;20249;-78
2023/04/18 01:51:19;;;;;;;6.10;0.90;;;21.80;99.90;;;;;;4957485;29;20205;-78
2023/04/18 01:53:50;;;;;;;3.15;0.68;;;21.80;99.90;;;;;;4943497;29;20201;-78
2023/04/18 01:56:23;;;;;;;5.15;0.73;;;21.90;99.90;;;;;;4957558;29;20669;-78
2023/04/18 01:58:54;;;;;;;3.55;1.13;;;21.90;99.90;;;;;;4952897;28;20225;-78
2023/04/18 02:01:25;;;;;;;4.72;0.77;;;21.80;99.90;;;;;;4939882;29;20324;-78
2023/04/18 02:03:57;;;;;;;4.00;0.73;;;21.80;99.90;;;;;;4953573;28;20227;-79
2023/04/18 02:06:28;;;;;;;5.10;0.77;;;21.90;99.90;;;;;;4957089;28;20207;-78
2023/04/18 02:08:59;;;;;;;4.78;0.75;;;21.90;99.90;;;;;;4955801;29;20201;-79
2023/04/18 02:11:33;;;;;;;3.42;0.80;;;21.90;99.90;;;;;;4956387;29;20212;-77
2023/04/18 02:14:04;;;;;;;4.63;0.93;;;21.90;99.90;;;;;;4953243;28;20205;-78
2023/04/18 02:16:38;;;;;;;2.08;0.50;;;22.00;99.90;;;;;;4956512;28;20205;-79
2023/04/18 02:19:09;;;;;;;5.38;0.90;;;22.00;99.90;;;;;;4955922;28;20232;-78
2023/04/18 02:21:40;;;;;;;2.75;0.60;;;22.00;99.90;;;;;;4957008;28;20212;-78
2023/04/18 02:24:11;;;;;;;4.43;1.00;;;21.90;99.90;;;;;;4955062;28;20208;-78
2023/04/18 02:26:45;;;;;;;6.07;0.85;;;21.90;99.90;;;;;;4953822;29;20209;-78
2023/04/18 02:29:15;;;;;;;3.00;0.70;;;21.90;99.90;;;;;;4954086;29;20288;-79
2023/04/18 02:31:46;;;;;;;5.10;0.63;;;21.90;99.90;;;;;;4955850;29;20207;-77
2023/04/18 02:34:17;;;;;;;6.38;0.95;;;22.00;99.90;;;;;;4945200;29;20209;-78
2023/04/18 02:36:48;;;;;;;6.22;0.70;;;21.90;99.90;;;;;;4950979;28;20276;-78
2023/04/18 02:39:19;;;;;;;3.38;0.63;;;21.80;99.90;;;;;;4956684;29;20268;-78
2023/04/18 02:41:51;;;;;;;4.47;0.63;;;21.80;99.90;;;;;;4956724;29;20649;-77
2023/04/18 02:44:24;;;;;;;4.88;0.70;;;21.80;99.90;;;;;;4954866;29;20240;-79
2023/04/18 02:46:55;;;;;;;3.60;0.68;;;21.80;99.90;;;;;;4954226;28;20307;-78
2023/04/18 02:49:26;;;;;;;5.95;0.90;;;21.90;99.90;;;;;;4937094;29;20208;-78
2023/04/18 02:51:57;;;;;;;4.60;0.70;;;21.90;99.90;;;;;;4954142;29;20197;-78
2023/04/18 02:54:28;;;;;;;6.95;0.80;;;21.90;99.90;;;;;;4953388;29;20201;-78
2023/04/18 02:57:01;;;;;;;4.88;0.70;;;21.90;99.90;;;;;;4953583;28;20252;-78
2023/04/18 02:59:32;;;;;;;3.03;0.70;;;21.90;99.90;;;;;;4955276;29;20718;-78
2023/04/18 03:02:03;;;;;;;5.82;0.70;;;21.80;99.90;;;;;;4956104;28;20283;-79
2023/04/18 03:04:34;;;;;;;2.70;0.60;;;21.80;99.90;;;;;;4952844;28;20228;-79
2023/04/18 03:07:05;;;;;;;3.30;0.60;;;21.80;99.90;;;;;;4954680;28;20205;-78
2023/04/18 03:09:36;;;;;;;4.47;1.00;;;21.80;99.90;;;;;;4955027;29;20204;-79
2023/04/18 03:12:09;;;;;;;5.68;1.00;;;21.70;99.90;;;;;;4954969;28;20200;-80
2023/04/18 03:14:40;;;;;;;3.50;0.60;;;21.60;99.90;;;;;;4953567;28;20212;-79
2023/04/18 03:17:10;;;;;;;5.05;0.80;;;21.60;99.90;;;;;;4955412;28;20197;-78
2023/04/18 03:19:41;;;;;;;2.40;0.68;;;21.60;99.90;;;;;;4953089;29;20223;-79
2023/04/18 03:22:12;;;;;;;5.35;0.70;;;21.60;99.90;;;;;;4955068;29;20200;-79
2023/04/18 03:24:42;;;;;;;5.00;0.93;;;21.60;99.90;;;;;;4953488;28;20260;-79
2023/04/18 03:27:15;;;;;;;2.75;0.80;;;21.60;99.90;;;;;;4954706;28;20618;-79
2023/04/18 03:29:46;;;;;;;4.35;0.77;;;21.60;99.90;;;;;;4950133;29;20197;-79
2023/04/18 03:32:17;;;;;;;5.72;0.75;;;21.60;99.90;;;;;;4954666;29;20283;-77
2023/04/18 03:34:47;;;;;;;5.10;0.75;;;21.50;99.90;;;;;;4946982;28;20201;-78
2023/04/18 03:37:18;;;;;;;7.03;1.00;;;21.50;99.90;;;;;;4943383;28;20260;-79
2023/04/18 03:39:48;;;;;;;2.67;0.80;;;21.50;99.90;;;;;;4954404;28;20280;-76
2023/04/18 03:42:21;;;;;;;4.18;0.90;;;21.50;99.90;;;;;;4947799;29;20209;-78
2023/04/18 03:44:52;;;;;;;2.67;0.70;;;21.50;99.90;;;;;;4947942;29;20634;-79
2023/04/18 03:47:22;;;;;;;4.35;0.70;;;21.50;99.90;;;;;;4953405;28;20208;-78
2023/04/18 03:49:53;;;;;;;4.35;1.10;;;21.50;99.90;;;;;;4955553;29;20204;-77
2023/04/18 03:52:23;;;;;;;2.45;0.80;;;21.50;99.90;;;;;;4952066;29;20205;-79
2023/04/18 03:54:54;;;;;;;5.43;1.00;;;21.50;99.90;;;;;;4953317;28;20271;-78
2023/04/18 03:57:27;;;;;;;4.00;0.77;;;21.50;99.90;;;;;;4951348;29;20338;-78
2023/04/18 03:59:57;;;;;;;4.03;0.70;;;21.50;99.90;;;;;;4954464;29;20291;-77
2023/04/18 04:02:28;;;;;;;5.95;0.75;;;21.50;99.90;;;;;;4947203;29;20245;-78
2023/04/18 04:04:59;;;;;;;3.85;0.50;;;21.50;99.90;;;;;;4947949;28;20276;-79
2023/04/18 04:07:30;;;;;;;4.38;0.82;;;21.50;99.90;;;;;;4951944;29;20197;-80
2023/04/18 04:10:00;;;;;;;2.97;0.70;;;21.60;99.90;;;;;;4948951;29;20697;-80
2023/04/18 04:12:33;;;;;;;6.43;0.85;;;21.60;99.90;;;;;;4955275;29;20247;-79
2023/04/18 04:15:04;;;;;;;3.25;1.05;;;21.60;99.90;;;;;;4955557;29;20314;-78
2023/04/18 04:17:34;;;;;;;2.15;0.57;;;21.60;99.90;;;;;;4954873;29;20276;-80
2023/04/18 04:20:05;;;;;;;4.47;0.77;;;21.50;99.90;;;;;;4954835;29;20284;-78
2023/04/18 04:22:36;;;;;;;2.97;0.60;;;21.60;99.90;;;;;;4953029;29;20196;-79
2023/04/18 04:25:07;;;;;;;4.57;0.52;;;21.50;99.90;;;;;;4955197;29;20195;-78
2023/04/18 04:27:41;;;;;;;2.80;0.68;;;21.50;99.90;;;;;;4955293;29;20256;-78
2023/04/18 04:30:13;;;;;;;3.67;0.70;;;21.50;99.90;;;;;;4938073;29;20307;-80
2023/04/18 04:32:44;;;;;;;3.95;0.70;;;21.50;99.90;;;;;;4954570;29;20193;-79
2023/04/18 04:35:14;;;;;;;3.10;0.90;;;21.40;99.90;;;;;;4951668;29;20200;-79
2023/04/18 04:37:45;;;;;;;5.88;0.70;;;21.40;99.90;;;;;;4955194;29;20256;-79
2023/04/18 04:40:16;;;;;;;3.40;0.80;;;21.40;99.90;;;;;;4955394;29;20663;-78
2023/04/18 04:42:52;;;;;;;3.53;0.90;;;21.40;99.90;;;;;;4954437;29;20212;-79
2023/04/18 04:45:23;;;;;;;5.07;0.90;;;21.40;99.90;;;;;;4953892;29;20303;-78
2023/04/18 04:47:57;;;;;;;5.60;0.93;;;21.50;99.90;;;;;;4952708;29;20260;-80
2023/04/18 04:50:28;;;;;;;5.03;0.80;;;21.60;99.90;;;;;;4955425;29;20193;-79
2023/04/18 04:52:58;;;;;;;4.93;0.90;;;21.60;99.90;;;;;;4954905;29;20696;-80
2023/04/18 04:55:29;;;;;;;3.35;0.80;;;21.60;99.90;;;;;;4953744;29;20645;-79
2023/04/18 04:58:01;;;;;;;6.03;0.85;;;21.60;99.90;;;;;;4956532;28;20203;-79
2023/04/18 05:00:32;;;;;;;6.30;0.70;;;21.70;99.90;;;;;;4951218;28;20244;-79
2023/04/18 05:03:03;;;;;;;5.05;0.90;;;21.80;99.90;;;;;;4954397;29;20740;-79
2023/04/18 05:05:33;;;;;;;4.78;0.68;;;21.90;99.90;;;;;;4954867;29;20288;-79
2023/04/18 05:08:04;;;;;;;4.22;0.93;;;21.90;99.90;;;;;;4954853;29;20197;-79
2023/04/18 05:10:35;;;;;;;3.95;0.80;;;21.90;99.90;;;;;;4954926;29;20278;-79
2023/04/18 05:13:09;;;;;;;7.20;0.95;;;21.90;99.90;;;;;;4954026;29;20209;-80
2023/04/18 05:15:40;;;;;;;3.00;0.75;;;22.00;99.90;;;;;;4954788;29;20197;-80
2023/04/18 05:18:12;;;;;;;3.08;0.90;;;22.00;99.90;;;;;;4954879;29;20197;-80
2023/04/18 05:20:43;;;;;;;3.47;0.93;;;22.00;99.90;;;;;;4955075;29;20719;-80
2023/04/18 05:23:14;;;;;;;6.70;1.63;;;22.00;99.90;;;;;;4954713;29;20236;-80
2023/04/18 05:25:44;;;;;;;4.80;0.70;;;22.00;99.90;;;;;;4954769;29;20197;-79
2023/04/18 05:28:17;;;;;;;3.75;0.77;;;22.00;99.90;;;;;;4954631;29;20198;-80
2023/04/18 05:30:48;;;;;;;2.03;0.45;;;22.00;99.90;;;;;;4954592;29;20288;-79
2023/04/18 05:33:19;;;;;;;5.38;0.80;;;21.90;99.90;;;;;;4954650;29;20193;-80
2023/04/18 05:35:50;;;;;;;4.30;0.77;;;21.90;99.90;;;;;;4936949;29;20201;-79
2023/04/18 05:38:21;;;;;;;4.20;0.73;;;21.90;99.90;;;;;;4954843;29;20645;-80
2023/04/18 05:40:54;;;;;;;3.17;0.75;;;21.80;99.90;;;;;;4953276;29;20311;-79
2023/04/18 05:43:27;;;;;;;2.83;0.60;;;21.80;99.90;;;;;;4954124;29;20274;-79
2023/04/18 05:45:58;;;;;;;5.05;0.77;;;21.70;99.90;;;;;;4954383;29;20252;-79
2023/04/18 05:48:30;;;;;;;3.83;0.70;;;21.80;99.90;;;;;;4948710;29;20657;-79
2023/04/18 05:51:01;;;;;;;4.55;0.70;;;21.70;99.90;;;;;;4952466;29;20204;-79
2023/04/18 05:53:32;;;;;;;4.78;0.70;;;21.60;99.90;;;;;;4954351;29;20204;-79
2023/04/18 05:56:03;;;;;;;3.55;0.75;;;21.60;99.90;;;;;;4954532;29;20200;-79
2023/04/18 05:58:36;;;;;;;6.53;1.00;;;21.60;99.90;;;;;;4954412;28;20533;-80
2023/04/18 06:01:07;;;;;;;2.80;0.73;;;21.50;99.90;;;;;;4955112;29;20238;-80
2023/04/18 06:03:39;;;;;;;4.55;0.80;;;21.40;99.90;;;;;;4956721;29;20209;-80
2023/04/18 06:06:10;;;;;;;2.83;0.70;;;21.40;99.90;;;;;;4956250;29;20260;-79
2023/04/18 06:08:42;;;;;;;7.20;0.90;;;21.40;99.90;;;;;;4956946;29;20189;-79
2023/04/18 06:11:14;;;;;;;3.17;0.90;;;21.40;99.90;;;;;;4957765;29;20212;-80
2023/04/18 06:13:47;;;;;;;3.42;1.05;;;21.40;99.90;;;;;;4957631;29;20194;-79
2023/04/18 06:16:18;;;;;;;3.97;0.70;;;21.30;99.90;;;;;;4957175;29;20197;-79
2023/04/18 06:18:49;;;;;;;1.65;0.80;;;21.30;99.90;;;;;;4957691;29;20573;-79
2023/04/18 06:21:20;;;;;;;2.92;1.13;;;21.20;99.90;;;;;;4957456;29;20205;-79
2023/04/18 06:23:51;;;;;;;6.32;0.85;;;21.20;99.90;;;;;;4938455;29;20613;-80
2023/04/18 06:26:22;;;;;;;3.92;0.80;;;21.30;99.90;;;;;;4952906;29;20569;-79
2023/04/18 06:28:55;;;;;;;7.07;0.90;;;21.20;99.90;;;;;;4957227;29;20537;-80
2023/04/18 06:31:27;;;;;;;5.68;0.90;;;21.20;99.90;;;;;;4957696;29;20204;-79
2023/04/18 06:33:58;;;;;;;10.93;1.05;;;21.10;99.90;;;;;;4958079;29;20671;-79
2023/04/18 06:36:29;;;;;;;6.88;1.00;;;21.10;99.90;;;;;;4956507;29;20189;-79
2023/04/18 06:39:00;;;;;;;5.88;0.90;;;21.00;99.90;;;;;;4956579;29;20201;-80
2023/04/18 06:41:31;;;;;;;4.10;0.77;;;20.90;99.90;;;;;;4957279;29;20203;-79
2023/04/18 06:44:04;;;;;;;7.40;0.90;;;21.00;99.90;;;;;;4957023;29;20193;-79
2023/04/18 06:46:35;;;;;;;6.03;0.90;;;20.90;99.90;;;;;;4955968;29;20201;-79
2023/04/18 06:49:06;;;;;;;4.38;1.10;;;20.90;99.90;;;;;;4951003;29;20593;-78
2023/04/18 06:51:37;;;;;;;5.95;1.30;;;20.80;99.90;;;;;;4942877;29;20197;-79
2023/04/18 06:54:08;;;;;;;7.43;1.05;;;20.70;99.90;;;;;;4955712;29;20201;-79
2023/04/18 06:56:39;;;;;;;6.47;1.10;;;20.80;99.90;;;;;;4952655;29;20224;-79
2023/04/18 06:59:12;;;;;;;6.15;1.20;;;20.70;99.90;;;;;;4956578;29;20547;-78
2023/04/18 07:01:44;;;;;;;6.35;0.80;;;20.70;99.90;;;;;;4949617;28;20240;-79
2023/04/18 07:04:15;;;;;;;5.32;1.20;;;20.70;99.90;;;;;;4952602;28;20225;-79
2023/04/18 07:06:46;;;;;;;6.43;1.00;;;20.60;99.90;;;;;;4953066;29;20698;-79
2023/04/18 07:09:17;;;;;;;7.13;1.20;;;20.60;99.90;;;;;;4949016;29;20216;-79
2023/04/18 07:11:49;;;;;;;5.70;0.93;;;20.50;99.90;;;;;;4951165;28;20564;-79
2023/04/18 07:14:24;;;;;;;4.32;0.90;;;20.40;99.90;;;;;;4945219;28;20316;-79
2023/04/18 07:16:56;;;;;;;6.05;0.85;;;20.40;99.90;;;;;;4951126;28;20196;-79
2023/04/18 07:19:27;;;;;;;5.60;0.73;;;20.30;99.90;;;;;;4953568;29;20350;-80
2023/04/18 07:21:58;;;;;;;6.32;1.00;;;20.20;99.90;;;;;;4946170;29;20189;-79
2023/04/18 07:24:29;;;;;;;8.20;0.90;;;20.20;99.90;;;;;;4956343;29;20197;-79
2023/04/18 07:27:00;;;;;;;6.07;0.90;;;20.10;99.90;;;;;;4956249;29;20300;-79
2023/04/18 07:29:33;;;;;;;6.43;0.90;;;20.00;99.90;;;;;;4956168;29;20205;-79
2023/04/18 07:32:05;;;;;;;6.07;0.98;;;20.00;99.90;;;;;;4956304;29;20645;-78
2023/04/18 07:34:36;;;;;;;5.75;1.02;;;19.90;99.90;;;;;;4956046;29;20197;-79
2023/04/18 07:37:07;;;;;;;4.95;0.88;;;19.90;99.90;;;;;;4955718;29;20193;-79
2023/04/18 07:39:38;;;;;;;5.47;0.98;;;19.80;99.90;;;;;;4956300;29;20229;-79
2023/04/18 07:42:10;;;;;;;5.70;1.10;;;19.80;99.90;;;;;;4955622;29;20200;-78
2023/04/18 07:44:43;;;;;;;8.10;0.98;;;19.80;99.90;;;;;;4955790;29;20189;-78
2023/04/18 07:47:14;;;;;;;5.78;1.20;;;19.70;99.90;;;;;;4955918;29;20260;-78
2023/04/18 07:49:45;;;;;;;7.53;1.20;;;19.70;99.90;;;;;;4952533;29;20243;-78
2023/04/18 07:52:16;;;;;;;7.75;1.40;;;19.60;99.90;;;;;;4955931;29;20200;-78
2023/04/18 07:54:47;;;;;;;5.32;1.33;;;19.60;99.90;;;;;;4956210;29;20193;-79
2023/04/18 07:57:18;;;;;;;5.15;1.40;;;19.50;99.90;;;;;;4955382;29;20551;-79
2023/04/18 07:59:52;;;;;;;9.05;1.35;;;19.40;99.90;;;;;;4955185;29;20217;-78
2023/04/18 08:02:23;;;;;;;7.60;1.50;;;19.40;99.90;;;;;;4952949;29;20236;-79
2023/04/18 08:04:55;;;;;;;6.25;1.40;;;19.40;99.90;;;;;;4946123;29;20232;-79
2023/04/18 08:07:26;;;;;;;5.47;1.90;;;19.40;99.90;;;;;;4947880;28;20203;-79
2023/04/18 08:09:57;;;;;;;8.55;1.48;;;19.30;99.90;;;;;;4951820;28;20216;-78
2023/04/18 08:12:28;;;;;;;9.13;1.85;;;19.30;99.90;;;;;;4949115;29;20223;-78
2023/04/18 08:15:01;;;;;;;7.35;1.48;;;19.20;99.90;;;;;;4951371;28;20197;-79
2023/04/18 08:17:32;;;;;;;4.38;1.10;;;19.20;99.90;;;;;;4950331;29;20200;-78
2023/04/18 08:20:05;;;;;;;6.57;1.20;;;19.20;99.90;;;;;;4950447;28;20220;-78
2023/04/18 08:22:37;;;;;;;5.25;1.45;;;19.10;99.90;;;;;;4955362;28;20204;-78
2023/04/18 08:25:08;;;;;;;4.82;1.20;;;19.10;99.90;;;;;;4955277;29;20208;-78
2023/04/18 08:27:39;;;;;;;9.30;1.20;;;19.10;99.90;;;;;;4953875;28;20201;-78
2023/04/18 08:30:14;;;;;;;7.88;1.10;;;19.00;99.90;;;;;;4951946;29;20216;-78
2023/04/18 08:32:45;;;;;;;6.65;1.27;;;19.00;99.90;;;;;;4953941;29;20204;-79
2023/04/18 08:35:16;;;;;;;5.20;1.13;;;19.00;99.90;;;;;;4954437;29;20201;-79
2023/04/18 08:37:47;;;;;;;8.07;1.45;;;18.90;99.90;;;;;;4946518;28;20198;-78
2023/04/18 08:40:18;;;;;;;5.90;1.05;;;18.90;99.90;;;;;;4948248;28;20613;-80
2023/04/18 08:42:49;;;;;;;5.30;1.17;;;18.90;99.90;;;;;;4953419;28;20208;-78
2023/04/18 08:45:23;;;;;;;6.47;1.30;;;18.90;99.90;;;;;;4950885;28;20201;-78
2023/04/18 08:47:56;;;;;;;4.70;1.30;;;18.90;99.90;;;;;;4953711;29;20201;-78
2023/04/18 08:50:27;;;;;;;6.18;1.17;;;18.80;99.90;;;;;;4947455;29;20240;-78
2023/04/18 08:53:00;;;;;;;6.53;1.70;;;18.80;99.90;;;;;;4952859;28;20205;-78
2023/04/18 08:55:32;;;;;;;4.55;1.10;;;18.80;99.90;;;;;;4954157;29;20197;-78
2023/04/18 08:58:04;;;;;;;4.20;1.20;;;18.80;99.90;;;;;;4953168;29;20225;-78
2023/04/18 09:00:37;;;;;;;5.47;1.20;;;18.80;99.90;;;;;;4951592;29;20224;-78
2023/04/18 09:03:08;;;;;;;6.60;1.35;;;18.70;99.90;;;;;;4950544;28;20205;-78
2023/04/18 09:05:39;;;;;;;8.50;2.15;;;18.70;99.90;;;;;;4950674;28;20696;-78
2023/04/18 09:08:25;;;;;;;8.45;2.70;;;18.70;99.90;;;;;;4951638;29;20667;-78
2023/04/18 09:10:56;;;;;;;6.75;1.65;;;18.70;99.90;;;;;;4954742;29;20268;-78
2023/04/18 09:13:46;;;;;;;4.80;1.55;;;18.60;99.90;;;;;;4945254;29;20197;-78
2023/04/18 09:16:21;;;;;;;4.93;1.45;;;18.60;99.90;;;;;;4952052;29;20205;-78
2023/04/18 09:19:12;;;;;;;4.32;1.60;;;18.60;99.90;;;;;;4953997;29;20205;-78
2023/04/18 09:21:45;;;;;;;7.13;1.13;;;18.60;99.90;;;;;;4942825;28;20232;-78
2023/04/18 09:24:22;;;;;;;7.68;1.30;;;18.60;99.90;;;;;;4953311;28;20240;-78
2023/04/18 09:26:56;;;;;;;4.82;1.20;;;18.60;99.90;;;;;;4954254;28;20248;-78
2023/04/18 09:29:46;;;;;;;6.55;1.30;;;18.50;99.90;;;;;;4951160;28;20201;-78
2023/04/18 09:32:27;;;;;;;4.28;1.27;;;18.50;99.90;;;;;;4951903;28;20200;-78
2023/04/18 09:35:00;;;;;;;5.38;1.20;;;18.50;99.90;;;;;;4954850;28;20205;-79
2023/04/18 09:37:32;;;;;;;5.35;1.20;;;18.50;99.90;;;;;;4956781;29;20205;-78
2023/04/18 09:40:17;;;;;;;10.02;1.52;;;18.40;99.90;;;;;;4957092;28;20202;-79
2023/04/18 09:42:49;;;;;;;4.93;1.05;;;18.40;99.90;;;;;;4957392;29;20573;-78
2023/04/18 09:45:20;;;;;;;5.03;1.27;;;18.40;99.90;;;;;;4953340;28;20621;-78
2023/04/18 09:47:54;;;;;;;5.28;1.23;;;18.30;99.90;;;;;;4954644;28;20201;-78
2023/04/18 09:50:25;;;;;;;5.70;1.40;;;18.30;99.90;;;;;;4950640;29;20648;-78
2023/04/18 09:52:57;;;;;;;6.03;1.15;;;18.30;99.90;;;;;;4955813;29;20204;-78
2023/04/18 09:55:28;;;;;;;4.47;1.00;;;18.20;99.90;;;;;;4954994;28;20207;-78
2023/04/18 09:58:01;;;;;;;5.55;1.10;;;18.20;99.90;;;;;;4957775;29;20201;-78
2023/04/18 10:00:34;;;;;;;4.47;1.13;;;18.10;99.90;;;;;;4954690;29;20699;-78
2023/04/18 10:03:09;;;;;;;6.78;1.50;;;18.10;99.90;;;;;;4953404;29;20649;-78
2023/04/18 10:05:41;;;;;;;6.07;1.80;;;18.10;99.90;;;;;;4955562;28;20696;-78
2023/04/18 10:08:14;;;;;;;5.63;2.08;;;18.00;99.90;;;;;;4956719;28;20201;-78
2023/04/18 10:10:46;;;;;;;5.93;1.55;;;17.90;99.90;;;;;;4954055;29;20197;-78
2023/04/18 10:13:20;;;;;;;5.63;1.38;;;17.90;99.90;;;;;;4956593;29;20196;-78
2023/04/18 10:15:51;;;;;;;6.53;1.25;;;17.80;99.90;;;;;;4954745;28;20649;-79
2023/04/18 10:18:26;;;;;;;5.55;1.52;;;17.80;99.90;;;;;;4953984;28;20223;-78
2023/04/18 10:21:05;;;;;;;4.35;1.40;;;17.80;99.90;;;;;;4938004;29;20224;-78
2023/04/18 10:23:41;;;;;;;6.13;1.70;;;17.80;99.90;;;;;;4943356;28;20197;-78
2023/04/18 10:26:13;;;;;;;5.57;1.50;;;17.70;99.90;;;;;;4944364;28;20568;-79
2023/04/18 10:28:56;;;;;;;7.75;1.30;;;17.70;99.90;;;;;;4941124;29;20669;-78
2023/04/18 10:31:27;;;;;;;2.15;1.10;;;17.80;99.90;;;;;;4946786;28;20197;-78
2023/04/18 10:34:01;;;;;;;3.42;1.15;;;17.80;99.90;;;;;;4939598;29;20569;-78
2023/04/18 10:36:32;;;;;;;6.18;1.08;;;17.80;99.90;;;;;;4951319;29;20220;-79
2023/04/18 10:39:21;;;;;;;5.07;1.23;;;17.80;99.90;;;;;;4951209;29;20204;-78
2023/04/18 10:41:53;;;;;;;3.72;1.10;;;17.80;99.90;;;;;;4953843;29;20275;-78
2023/04/18 10:44:26;;;;;;;3.38;1.10;;;17.80;99.90;;;;;;4956228;29;20229;-78
2023/04/18 10:47:24;;;;;;;4.75;1.00;;;17.80;99.90;;;;;;4948809;29;20287;-78
2023/04/18 10:50:14;;;;;;;7.93;1.08;;;17.80;99.90;;;;;;4928778;29;20204;-79
2023/04/18 10:52:45;;;;;;;4.97;1.10;;;17.80;99.90;;;;;;4954309;29;20693;-79
2023/04/18 10:55:26;;;;;;;4.18;1.00;;;17.80;99.90;;;;;;4955678;29;20204;-78
2023/04/18 10:58:00;;;;;;;3.90;1.00;;;17.80;99.90;;;;;;4953931;29;20275;-79
2023/04/18 11:00:32;;;;;;;5.57;0.98;;;17.80;99.90;;;;;;4955184;29;20208;-79
2023/04/18 11:03:04;;;;;;;6.53;1.17;;;17.80;99.90;;;;;;4949855;29;20208;-78
2023/04/18 11:05:37;;;;;;;5.57;1.05;;;17.80;99.90;;;;;;4953546;28;20256;-78
2023/04/18 11:08:23;;;;;;;6.95;1.38;;;17.80;99.90;;;;;;4952179;28;20284;-79
2023/04/18 11:11:02;;;;;;;3.83;1.20;;;17.80;99.90;;;;;;4937953;29;20205;-78
2023/04/18 11:13:35;;;;;;;5.55;1.27;;;17.70;99.90;;;;;;4955277;28;20197;-79
2023/04/18 11:16:07;;;;;;;8.00;1.73;;;17.70;99.90;;;;;;4956391;29;20196;-78
2023/04/18 11:18:44;;;;;;;4.00;1.15;;;17.70;99.90;;;;;;4953906;29;20201;-78
2023/04/18 11:21:17;;;;;;;6.00;1.52;;;17.70;99.90;;;;;;4944263;29;20224;-78
2023/04/18 11:23:49;;;;;;;5.18;1.40;;;17.70;99.90;;;;;;4954716;29;20279;-78
2023/04/18 11:26:20;;;;;;;7.55;1.50;;;17.70;99.90;;;;;;4956422;29;20284;-78
2023/04/18 11:28:57;;;;;;;5.05;1.30;;;17.60;99.90;;;;;;4956181;29;20667;-78
2023/04/18 11:31:29;;;;;;;6.15;1.38;;;17.60;99.90;;;;;;4956100;29;20280;-79
2023/04/18 11:34:00;;;;;;;5.95;1.60;;;17.60;99.90;;;;;;4955352;29;20197;-78
2023/04/18 11:36:37;;;;;;;7.32;1.52;;;17.50;99.90;;;;;;4956361;29;20193;-78
2023/04/18 11:39:09;;;;;;;7.70;1.80;;;17.50;99.90;;;;;;4956608;29;20193;-78
2023/04/18 11:41:49;;;;;;;4.32;1.40;;;17.40;99.90;;;;;;4956131;29;20311;-78
2023/04/18 11:44:24;;;;;;;2.90;1.42;;;17.40;99.90;;;;;;4955698;29;20201;-78
2023/04/18 11:46:55;;;;;;;4.55;1.15;;;17.40;99.90;;;;;;4952531;29;20211;-78
2023/04/18 11:49:30;;;;;;;3.42;1.25;;;17.30;99.90;;;;;;4955902;29;20193;-78
2023/04/18 11:52:12;;;;;;;8.10;1.30;;;17.30;99.90;;;;;;4955963;29;20196;-79
2023/04/18 11:54:44;;;;;;;4.40;1.17;;;17.30;99.90;;;;;;4955777;29;20548;-79
2023/04/18 11:57:25;;;;;;;8.00;1.30;;;17.30;99.90;;;;;;4955525;28;20193;-78
2023/04/18 11:59:57;;;;;;;4.47;1.45;;;17.30;99.90;;;;;;4955017;29;20204;-78
2023/04/18 12:02:41;;;;;;;4.32;1.30;;;17.30;99.90;;;;;;4955414;28;20252;-79
2023/04/18 12:05:13;;;;;;;4.45;1.48;;;17.30;99.90;;;;;;4955767;29;20220;-78
2023/04/18 12:07:48;;;;;;;4.07;1.70;;;17.20;99.90;;;;;;4955353;29;20201;-79
2023/04/18 12:10:28;;;;;;;3.60;1.90;;;17.20;99.90;;;;;;4955726;29;20200;-78
2023/04/18 12:13:00;;;;;;;6.53;1.80;;;17.10;99.90;;;;;;4955627;29;20552;-78
2023/04/18 12:15:32;;;;;;;6.45;1.77;;;17.10;99.90;;;;;;4953200;28;20208;-78
2023/04/18 12:18:04;;;;;;;5.70;1.58;;;17.10;99.90;;;;;;4954185;29;20193;-78
2023/04/18 12:20:45;;;;;;;10.27;1.88;;;17.00;99.90;;;;;;4954295;28;20341;-78
2023/04/18 12:23:36;;;;;;;6.88;1.70;;;17.00;99.90;;;;;;4950926;29;20673;-78
2023/04/18 12:26:08;;;;;;;4.55;1.70;;;16.90;99.90;;;;;;4954961;29;20193;-78
2023/04/18 12:28:39;;;;;;;5.65;1.33;;;16.90;99.90;;;;;;4954709;29;20210;-78
2023/04/18 12:31:10;;;;;;;5.82;1.60;;;16.90;99.90;;;;;;4953597;29;20201;-78
2023/04/18 12:33:41;;;;;;;5.70;1.65;;;16.90;99.90;;;;;;4952825;29;20563;-78
2023/04/18 12:36:13;;;;;;;7.07;1.50;;;16.90;99.90;;;;;;4951469;29;20197;-78
2023/04/18 12:38:47;;;;;;;5.65;1.40;;;16.90;99.90;;;;;;4953356;29;20653;-78
2023/04/18 12:41:18;;;;;;;6.93;1.63;;;16.90;99.90;;;;;;4954739;29;20252;-78
2023/04/18 12:43:49;;;;;;;5.80;1.60;;;16.90;99.90;;;;;;4955215;29;20668;-78
2023/04/18 12:46:20;;;;;;;9.25;1.48;;;16.90;99.90;;;;;;4954813;29;20192;-78
2023/04/18 12:48:51;;;;;;;6.65;1.65;;;16.90;99.90;;;;;;4951601;29;20208;-78
2023/04/18 12:51:22;;;;;;;7.60;1.63;;;16.90;99.90;;;;;;4953233;29;20216;-78
2023/04/18 12:53:55;;;;;;;8.43;1.63;;;16.90;99.90;;;;;;4953647;29;20224;-78
2023/04/18 12:56:26;;;;;;;6.00;1.45;;;16.90;99.90;;;;;;4953711;29;20200;-78
2023/04/18 12:58:58;;;;;;;6.63;1.92;;;16.90;99.90;;;;;;4951802;29;20204;-78
2023/04/18 13:01:29;;;;;;;5.75;1.40;;;16.90;99.90;;;;;;4945928;28;20252;-78
2023/04/18 13:04:00;;;;;;;8.82;1.83;;;16.90;99.90;;;;;;4954934;28;20229;-78
2023/04/18 13:06:31;;;;;;;5.88;1.13;;;16.90;99.90;;;;;;4953951;29;20197;-78
2023/04/18 13:09:04;;;;;;;8.45;1.67;;;16.90;99.90;;;;;;4955011;28;20197;-78
2023/04/18 13:11:35;;;;;;;4.88;1.50;;;16.90;99.90;;;;;;4958142;29;20280;-78
2023/04/18 13:14:07;;;;;;;5.55;1.33;;;16.80;99.90;;;;;;4940500;29;20268;-78